createdAt,value
2022-11-05T00:01:13.063Z,68.37
2022-11-05T00:04:08.877Z,68.32
2022-11-05T00:06:53.933Z,68.26
2022-11-05T00:09:29.905Z,68.20
2022-11-05T00:12:19.705Z,68.55
2022-11-05T00:15:04.832Z,68.08
2022-11-05T00:17:31.757Z,69.11
2022-11-05T00:19:58.446Z,69.51
2022-11-05T00:22:43.897Z,69.40
2022-11-05T00:25:19.835Z,68.94
2022-11-05T00:27:51.184Z,68.64
2022-11-05T00:30:19.924Z,69.00
2022-11-05T00:32:47.274Z,67.95
2022-11-05T00:35:14.474Z,68.66
2022-11-05T00:37:45.673Z,68.50
2022-11-05T00:40:15.555Z,68.06
2022-11-05T00:43:01.445Z,67.16
2022-11-05T00:45:29.206Z,67.88
2022-11-05T00:48:14.937Z,68.26
2022-11-05T00:50:41.973Z,68.33
2022-11-05T00:53:08.823Z,67.00
2022-11-05T00:55:42.976Z,67.36
2022-11-05T00:58:12.542Z,69.06
2022-11-05T01:00:40.865Z,68.15
2022-11-05T01:03:09.375Z,68.69
2022-11-05T01:05:41.125Z,67.84
2022-11-05T01:08:09.089Z,68.04
2022-11-05T01:10:39.853Z,68.25
2022-11-05T01:13:10.177Z,67.64
2022-11-05T01:15:39.625Z,67.79
2022-11-05T01:18:06.273Z,67.89
2022-11-05T01:20:32.935Z,67.80
2022-11-05T01:22:59.584Z,68.16
2022-11-05T01:25:26.384Z,67.68
2022-11-05T01:27:52.997Z,68.32
2022-11-05T01:30:19.755Z,68.70
2022-11-05T01:32:46.404Z,68.91
2022-11-05T01:35:14.721Z,68.69
2022-11-05T01:37:41.701Z,68.46
2022-11-05T01:40:10.798Z,68.30
2022-11-05T01:42:37.493Z,69.75
2022-11-05T01:45:07.099Z,69.30
2022-11-05T01:47:42.872Z,69.81
2022-11-05T01:50:21.723Z,69.68
2022-11-05T01:52:50.093Z,69.17
2022-11-05T01:55:20.363Z,68.47
2022-11-05T01:57:47.368Z,68.41
2022-11-05T02:00:14.272Z,69.34
2022-11-05T02:02:41.102Z,68.83
2022-11-05T02:05:08.182Z,69.44
2022-11-05T02:07:34.962Z,68.91
2022-11-05T02:10:03.505Z,69.58
2022-11-05T02:12:30.443Z,69.64
2022-11-05T02:14:57.822Z,69.88
2022-11-05T02:17:42.615Z,69.47
2022-11-05T02:20:22.701Z,68.97
2022-11-05T02:23:07.670Z,69.08
2022-11-05T02:25:53.277Z,69.62
2022-11-05T02:28:22.584Z,69.64
2022-11-05T02:31:03.764Z,69.29
2022-11-05T02:33:44.149Z,69.21
2022-11-05T02:36:35.536Z,69.17
2022-11-05T03:01:47.604Z,69.54
2022-11-05T03:04:17.289Z,68.78
2022-11-05T03:07:03.893Z,68.75
2022-11-05T03:09:50.372Z,68.28
2022-11-05T03:39:39.972Z,67.55
2022-11-05T03:42:29.113Z,67.29
2022-11-05T03:45:15.813Z,68.67
2022-11-05T03:47:50.050Z,69.07
2022-11-05T03:50:45.843Z,68.92
2022-11-05T03:53:27.163Z,66.73
2022-11-05T03:56:06.326Z,67.37
2022-11-05T03:58:34.572Z,68.89
2022-11-05T04:01:04.162Z,67.91
2022-11-05T04:03:37.881Z,67.97
2022-11-05T04:06:26.811Z,67.48
2022-11-05T04:09:13.983Z,67.93
2022-11-05T04:11:59.335Z,67.34
2022-11-05T04:14:32.302Z,67.97
2022-11-05T04:17:14.005Z,67.14
2022-11-05T04:20:05.434Z,67.35
2022-11-05T04:22:55.922Z,66.13
2022-11-05T04:25:22.822Z,67.86
2022-11-05T04:27:50.872Z,67.46
2022-11-05T04:30:25.983Z,67.64
2022-11-05T04:33:05.876Z,67.19
2022-11-05T04:35:44.416Z,68.22
2022-11-05T04:38:32.073Z,68.17
2022-11-05T04:41:15.707Z,66.54
2022-11-05T04:43:46.642Z,68.14
2022-11-05T04:46:16.992Z,66.50
2022-11-05T04:48:44.645Z,68.81
2022-11-05T04:51:19.492Z,68.03
2022-11-05T04:53:48.142Z,67.93
2022-11-05T04:56:21.302Z,68.14
2022-11-05T04:58:49.114Z,68.04
2022-11-05T05:01:17.069Z,67.08
2022-11-05T05:03:44.182Z,67.04
2022-11-05T05:06:11.742Z,66.88
2022-11-05T05:08:38.651Z,67.73
2022-11-05T05:11:10.985Z,67.94
2022-11-05T05:13:38.142Z,67.42
2022-11-05T05:16:06.243Z,68.23
2022-11-05T05:18:33.432Z,68.39
2022-11-05T05:21:19.700Z,67.60
2022-11-05T05:23:49.553Z,68.55
2022-11-05T05:26:16.922Z,69.50
2022-11-05T05:28:44.042Z,66.76
2022-11-05T05:31:15.654Z,67.45
2022-11-05T05:33:44.864Z,67.33
2022-11-05T05:36:16.853Z,69.61
2022-11-05T05:38:46.715Z,69.42
2022-11-05T05:41:13.482Z,68.06
2022-11-05T05:43:44.853Z,68.03
2022-11-05T05:46:12.453Z,68.91
2022-11-05T05:48:39.276Z,68.53
2022-11-05T05:51:07.912Z,68.62
2022-11-05T05:53:39.703Z,67.98
2022-11-05T05:56:07.302Z,68.18
2022-11-05T05:58:39.742Z,68.46
2022-11-05T06:01:17.233Z,68.53
2022-11-05T06:03:45.697Z,68.28
2022-11-05T06:06:17.535Z,68.39
2022-11-05T06:08:44.318Z,69.04
2022-11-05T06:11:12.403Z,69.31
2022-11-05T06:13:39.137Z,68.30
2022-11-05T06:19:02.817Z,67.49
2022-11-05T06:21:31.243Z,68.35
2022-11-05T06:23:58.965Z,68.45
2022-11-05T06:26:27.066Z,68.04
2022-11-05T06:28:54.838Z,68.65
2022-11-05T06:31:23.105Z,68.68
2022-11-05T06:33:50.490Z,68.15
2022-11-05T06:36:19.555Z,68.30
2022-11-05T06:38:48.000Z,67.84
2022-11-05T06:41:15.900Z,67.82
2022-11-05T06:46:27.971Z,67.27
2022-11-05T06:48:54.855Z,67.86
2022-11-05T06:51:21.621Z,67.56
2022-11-05T06:53:48.449Z,67.26
2022-11-05T06:56:16.554Z,67.61
2022-11-05T06:58:44.292Z,68.27
2022-11-05T07:01:14.524Z,67.23
2022-11-05T07:03:41.245Z,68.98
2022-11-05T07:06:09.480Z,67.90
2022-11-05T07:08:39.341Z,67.77
2022-11-05T07:11:06.433Z,67.97
2022-11-05T07:14:29.521Z,68.18
2022-11-05T07:37:00.593Z,67.84
2022-11-05T07:39:27.862Z,67.62
2022-11-05T07:41:55.506Z,68.40
2022-11-05T07:44:22.353Z,67.52
2022-11-05T07:46:50.953Z,67.89
2022-11-05T07:49:18.401Z,68.05
2022-11-05T07:51:46.111Z,67.62
2022-11-05T07:54:12.894Z,67.37
2022-11-05T07:56:59.318Z,67.73
2022-11-05T07:59:26.072Z,66.13
2022-11-05T08:01:52.986Z,66.40
2022-11-05T08:04:19.883Z,67.03
2022-11-05T08:06:47.704Z,67.22
2022-11-05T08:09:22.170Z,66.61
2022-11-05T08:11:53.116Z,66.28
2022-11-05T08:14:20.315Z,65.69
2022-11-05T08:16:47.311Z,66.25
2022-11-05T08:19:16.792Z,67.37
2022-11-05T08:21:45.999Z,66.24
2022-11-05T08:24:21.293Z,65.82
2022-11-05T08:26:50.753Z,65.63
2022-11-05T08:29:18.200Z,65.80
2022-11-05T08:31:44.962Z,66.20
2022-11-05T08:34:14.918Z,65.52
2022-11-05T08:36:49.344Z,65.39
2022-11-05T08:39:20.353Z,64.93
2022-11-05T08:41:48.015Z,64.21
2022-11-05T08:44:27.722Z,63.86
2022-11-05T08:46:55.822Z,63.41
2022-11-05T08:49:41.894Z,64.43
2022-11-05T08:52:08.734Z,63.78
2022-11-05T08:54:38.333Z,63.11
2022-11-05T08:57:27.692Z,63.66
2022-11-05T09:00:03.676Z,62.31
2022-11-05T09:02:30.530Z,62.15
2022-11-05T09:07:40.822Z,62.02
2022-11-05T09:13:48.493Z,62.31
2022-11-05T09:32:41.033Z,62.68
2022-11-05T09:35:08.548Z,63.22
2022-11-05T09:38:00.664Z,62.72
2022-11-05T09:40:32.470Z,63.77
2022-11-05T09:43:02.454Z,63.77
2022-11-05T09:45:44.202Z,62.99
2022-11-05T09:48:18.812Z,63.53
2022-11-05T09:50:47.392Z,62.78
2022-11-05T09:53:17.863Z,63.58
2022-11-05T09:55:50.904Z,63.50
2022-11-05T09:58:36.340Z,62.91
2022-11-05T10:01:11.241Z,63.40
2022-11-05T10:03:44.369Z,63.09
2022-11-05T10:06:21.800Z,62.83
2022-11-05T10:08:55.950Z,61.67
2022-11-05T10:11:30.401Z,61.85
2022-11-05T10:14:04.018Z,62.40
2022-11-05T10:16:38.846Z,63.67
2022-11-05T10:19:25.803Z,63.17
2022-11-05T10:22:07.268Z,62.76
2022-11-05T10:44:47.987Z,62.39
2022-11-05T10:47:34.083Z,62.16
2022-11-05T10:50:05.062Z,62.24
2022-11-05T10:52:40.025Z,62.89
2022-11-05T10:55:31.702Z,63.27
2022-11-05T10:58:09.037Z,62.66
2022-11-05T11:00:36.791Z,64.01
2022-11-05T11:03:06.024Z,62.97
2022-11-05T11:05:37.052Z,62.54
2022-11-05T11:08:15.751Z,63.07
2022-11-05T11:38:09.202Z,61.01
2022-11-05T11:40:38.036Z,62.07
2022-11-05T11:43:28.462Z,61.65
2022-11-05T11:46:02.183Z,61.23
2022-11-05T11:48:38.422Z,60.96
2022-11-05T11:51:30.226Z,60.72
2022-11-05T11:53:59.562Z,60.42
2022-11-05T11:56:28.014Z,62.03
2022-11-05T11:58:56.677Z,60.10
2022-11-05T12:01:27.476Z,60.97
2022-11-05T12:03:58.256Z,59.84
2022-11-05T12:06:36.784Z,61.60
2022-11-05T12:09:35.423Z,61.96
2022-11-05T12:12:11.870Z,61.54
2022-11-05T12:14:50.293Z,61.82
2022-11-05T12:17:26.173Z,60.77
2022-11-05T12:20:02.643Z,60.24
2022-11-05T12:22:51.434Z,60.51
2022-11-05T12:25:21.091Z,60.49
2022-11-05T12:28:08.775Z,59.99
2022-11-05T12:30:51.425Z,61.29
2022-11-05T12:33:35.926Z,60.45
2022-11-05T12:36:14.810Z,61.34
2022-11-05T12:39:01.243Z,60.98
2022-11-05T12:41:44.052Z,60.83
2022-11-05T12:44:25.443Z,61.83
2022-11-05T12:46:58.023Z,61.30
2022-11-05T12:49:34.001Z,61.38
2022-11-05T12:52:05.770Z,61.86
2022-11-05T12:54:43.303Z,61.17
2022-11-05T12:57:15.820Z,62.14
2022-11-05T13:00:00.463Z,61.17
2022-11-05T13:02:30.421Z,59.86
2022-11-05T13:05:09.723Z,59.73
2022-11-05T13:07:39.432Z,59.61
2022-11-05T13:10:09.524Z,60.15
2022-11-05T13:12:38.733Z,60.21
2022-11-05T13:15:11.261Z,61.31
2022-11-05T13:17:50.814Z,61.84
2022-11-05T13:20:22.552Z,61.57
2022-11-05T13:22:56.867Z,63.07
2022-11-05T13:25:41.445Z,62.58
2022-11-05T13:28:19.444Z,62.09
2022-11-05T13:30:52.732Z,62.49
2022-11-05T13:33:36.013Z,63.50
2022-11-05T13:36:40.214Z,62.36
2022-11-05T13:39:17.682Z,63.15
2022-11-05T13:41:58.392Z,61.88
2022-11-05T13:44:32.002Z,62.82
2022-11-05T13:47:01.902Z,62.72
2022-11-05T13:49:42.615Z,62.23
2022-11-05T13:55:25.288Z,62.71
2022-11-05T13:58:13.003Z,62.96
2022-11-05T14:01:01.028Z,63.31
2022-11-05T14:03:38.513Z,61.20
2022-11-05T14:06:08.894Z,61.85
2022-11-05T14:08:45.608Z,62.88
2022-11-05T14:11:29.774Z,63.50
2022-11-05T14:56:51.907Z,65.06
2022-11-05T15:09:55.579Z,65.43
2022-11-05T15:31:14.625Z,65.01
2022-11-05T15:34:19.773Z,64.73
2022-11-05T15:37:02.482Z,65.84
2022-11-05T15:39:34.044Z,66.64
2022-11-05T15:42:23.450Z,66.77
2022-11-05T15:45:01.192Z,66.31
2022-11-05T15:47:37.362Z,67.14
2022-11-05T15:50:14.665Z,66.95
2022-11-05T15:52:48.802Z,65.43
2022-11-05T15:55:15.619Z,64.40
2022-11-05T15:57:50.915Z,66.05
2022-11-05T16:00:44.404Z,67.05
2022-11-05T16:03:16.442Z,65.00
2022-11-05T16:05:49.093Z,65.09
2022-11-05T16:08:22.892Z,66.21
2022-11-05T16:10:51.466Z,67.85
2022-11-05T16:13:48.314Z,67.64
2022-11-05T16:16:19.103Z,67.45
2022-11-05T16:18:51.181Z,67.88
2022-11-05T16:21:25.014Z,66.80
2022-11-05T16:23:57.715Z,65.07
2022-11-05T16:27:00.659Z,65.46
2022-11-05T16:29:21.575Z,66.66
2022-11-05T16:31:49.612Z,67.12
2022-11-05T16:34:38.125Z,67.28
2022-11-05T16:37:12.004Z,66.46
2022-11-05T16:39:42.714Z,67.91
2022-11-05T16:42:44.053Z,67.12
2022-11-05T16:45:15.252Z,67.73
2022-11-05T16:47:42.914Z,67.07
2022-11-05T16:50:16.890Z,66.95
2022-11-05T16:53:02.942Z,68.28
2022-11-05T16:55:31.111Z,68.70
2022-11-05T16:57:58.347Z,68.06
2022-11-05T17:00:25.625Z,67.06
2022-11-05T17:02:54.235Z,67.58
2022-11-05T17:05:27.263Z,66.88
2022-11-05T17:07:55.299Z,66.64
2022-11-05T17:10:54.185Z,67.08
2022-11-05T17:13:23.273Z,67.68
2022-11-05T17:15:52.633Z,66.60
2022-11-05T17:18:20.707Z,67.49
2022-11-05T17:20:52.754Z,66.83
2022-11-05T17:23:32.870Z,67.22
2022-11-05T17:26:10.172Z,68.48
2022-11-05T17:28:38.772Z,66.96
2022-11-05T17:31:10.162Z,66.87
2022-11-05T17:33:37.531Z,68.13
2022-11-05T17:36:10.414Z,66.66
2022-11-05T17:38:40.768Z,66.09
2022-11-05T17:41:21.712Z,65.22
2022-11-05T17:43:57.044Z,64.65
2022-11-05T17:46:24.353Z,66.45
2022-11-05T17:48:51.876Z,67.45
2022-11-05T17:51:19.261Z,66.60
2022-11-05T17:53:47.083Z,66.53
2022-11-05T17:56:27.270Z,66.24
2022-11-05T17:59:03.278Z,66.42
2022-11-05T18:01:32.607Z,67.99
2022-11-05T18:04:09.070Z,67.94
2022-11-05T18:06:41.422Z,68.08
2022-11-05T18:09:09.544Z,65.43
2022-11-05T18:11:38.741Z,65.63
2022-11-05T18:14:05.557Z,66.58
2022-11-05T18:16:32.961Z,66.92
2022-11-05T18:19:00.422Z,66.64
2022-11-05T18:21:27.543Z,66.90
2022-11-05T18:23:54.680Z,66.75
2022-11-05T18:26:24.313Z,66.03
2022-11-05T18:28:51.567Z,67.72
2022-11-05T18:31:25.201Z,68.40
2022-11-05T18:33:55.104Z,67.53
2022-11-05T18:36:25.902Z,68.14
2022-11-05T18:39:03.493Z,67.26
2022-11-05T18:41:30.284Z,67.33
2022-11-05T18:44:02.510Z,66.54
2022-11-05T18:46:57.764Z,66.72
2022-11-05T18:49:24.655Z,65.92
2022-11-05T18:51:51.821Z,66.52
2022-11-05T18:54:19.552Z,66.04
2022-11-05T18:56:51.584Z,65.79
2022-11-05T18:59:40.235Z,68.04
2022-11-05T19:02:08.331Z,67.02
2022-11-05T19:05:06.644Z,67.92
2022-11-05T19:07:36.001Z,68.53
2022-11-05T19:10:03.794Z,67.99
2022-11-05T19:12:32.615Z,67.05
2022-11-05T19:15:02.387Z,67.47
2022-11-05T19:17:31.513Z,66.57
2022-11-05T19:20:00.233Z,67.24
2022-11-05T19:22:27.108Z,67.20
2022-11-05T19:25:08.315Z,66.32
2022-11-05T19:27:39.417Z,68.21
2022-11-05T19:30:07.133Z,67.42
2022-11-05T19:32:34.327Z,67.68
2022-11-05T19:35:03.232Z,68.14
2022-11-05T19:37:30.054Z,66.91
2022-11-05T19:39:58.409Z,67.64
2022-11-05T19:42:27.507Z,67.67
2022-11-05T19:44:54.865Z,67.09
2022-11-05T19:47:21.743Z,66.80
2022-11-05T19:52:33.824Z,66.18
2022-11-05T19:55:00.833Z,65.03
2022-11-05T19:57:30.825Z,64.96
2022-11-05T19:59:58.216Z,65.70
2022-11-05T20:02:28.986Z,66.53
2022-11-05T20:04:56.531Z,66.96
2022-11-05T20:07:41.632Z,67.56
2022-11-05T20:10:12.822Z,68.11
2022-11-05T20:12:41.933Z,67.31
2022-11-05T20:15:10.543Z,67.34
2022-11-05T20:17:40.344Z,67.79
2022-11-05T20:20:10.834Z,67.00
2022-11-05T20:22:38.723Z,67.25
2022-11-05T20:25:06.963Z,66.63
2022-11-05T20:27:33.886Z,65.88
2022-11-05T20:30:02.804Z,67.20
2022-11-05T20:32:31.086Z,66.34
2022-11-05T20:34:58.592Z,67.18
2022-11-05T20:37:26.473Z,66.49
2022-11-05T20:39:53.733Z,66.48
2022-11-05T20:42:21.084Z,65.73
2022-11-05T20:44:48.105Z,65.94
2022-11-05T20:47:16.188Z,66.11
2022-11-05T20:49:45.873Z,66.76
2022-11-05T20:52:17.643Z,65.77
2022-11-05T20:54:46.186Z,66.60
2022-11-05T20:57:22.641Z,66.42
2022-11-05T21:00:02.035Z,67.67
2022-11-05T21:02:30.988Z,66.91
2022-11-05T21:04:58.306Z,66.86
2022-11-05T21:07:25.095Z,67.07
2022-11-05T21:09:51.932Z,67.17
2022-11-05T21:12:22.786Z,68.05
2022-11-05T21:14:52.749Z,67.96
2022-11-05T21:17:20.354Z,68.42
2022-11-05T21:19:48.701Z,68.66
2022-11-05T21:22:16.402Z,66.98
2022-11-05T21:24:44.941Z,67.99
2022-11-05T21:27:13.194Z,67.19
2022-11-05T21:29:39.912Z,68.22
2022-11-05T21:32:07.883Z,68.15
2022-11-05T21:34:40.347Z,68.55
2022-11-05T21:37:09.919Z,68.88
2022-11-05T21:39:37.864Z,68.45
2022-11-05T21:42:04.833Z,68.67
2022-11-05T21:44:32.022Z,68.34
2022-11-05T21:47:00.895Z,68.13
2022-11-05T21:49:28.035Z,67.28
2022-11-05T21:52:14.442Z,67.29
2022-11-05T21:54:59.915Z,67.52
2022-11-05T21:57:45.378Z,68.72
2022-11-05T22:00:13.915Z,68.74
2022-11-05T22:02:41.155Z,69.51
2022-11-05T22:05:08.531Z,68.31
2022-11-05T22:07:36.933Z,68.56
2022-11-05T22:10:05.852Z,67.13
2022-11-05T22:12:34.767Z,67.82
2022-11-05T22:15:01.783Z,67.90
2022-11-05T22:17:29.713Z,67.31
2022-11-05T22:19:58.351Z,68.26
2022-11-05T22:22:28.083Z,67.95
2022-11-05T22:24:56.163Z,68.59
2022-11-05T22:27:23.011Z,68.26
2022-11-05T22:29:51.153Z,68.17
2022-11-05T22:32:18.413Z,68.08
2022-11-05T22:34:50.003Z,68.21
2022-11-05T22:39:58.585Z,68.06
2022-11-05T22:42:27.044Z,67.71
2022-11-05T22:44:58.200Z,67.80
2022-11-05T22:47:37.662Z,68.32
2022-11-05T22:50:06.463Z,67.85
2022-11-05T22:52:33.233Z,67.36
2022-11-05T22:55:03.460Z,68.44
2022-11-05T22:57:31.823Z,68.51
2022-11-05T23:00:03.948Z,68.11
2022-11-05T23:02:33.337Z,66.52
2022-11-05T23:05:01.884Z,67.99
2022-11-05T23:07:55.865Z,67.66
2022-11-05T23:10:53.794Z,68.06
2022-11-05T23:13:20.665Z,68.05
2022-11-05T23:16:06.135Z,67.79
2022-11-05T23:18:53.034Z,67.15
2022-11-05T23:21:41.452Z,67.23
2022-11-05T23:24:09.156Z,67.18
2022-11-05T23:26:54.509Z,68.03
2022-11-05T23:29:25.510Z,67.71
2022-11-05T23:32:14.863Z,67.35
2022-11-05T23:34:43.261Z,67.38
2022-11-05T23:37:31.853Z,67.86
2022-11-05T23:39:58.609Z,67.62
2022-11-05T23:42:44.043Z,68.13
2022-11-05T23:45:29.584Z,67.30
2022-11-05T23:48:15.551Z,66.62
2022-11-05T23:50:48.685Z,67.35
2022-11-05T23:53:19.950Z,66.94
2022-11-05T23:55:47.023Z,66.47
2022-11-05T23:58:15.217Z,66.62
